Time;durP1;ratioP1;P1;durP2;ratioP2;P2;SDS_P1;SDS_P2;PMS_P1;PMS_P2;Temp;Humidity;BMP_temperature;BMP_pressure;BME280_temperature;BME280_humidity;BME280_pressure;Samples;Min_cycle;Max_cycle;Signal;HPM_P1;HPM_P2
2022/06/13 00:00:02;;;;;;;7.18;2.83;;;;;;;;;;5084676;28;20557;-65
2022/06/13 00:02:27;;;;;;;5.50;2.58;;;;;;;;;;5089392;28;20040;-65
2022/06/13 00:04:53;;;;;;;4.82;2.90;;;;;;;;;;5087882;28;20024;-65
2022/06/13 00:07:18;;;;;;;6.50;2.80;;;;;;;;;;5083831;28;20029;-65
2022/06/13 00:09:43;;;;;;;11.15;3.58;;;;;;;;;;5086150;28;20035;-65
2022/06/13 00:12:09;;;;;;;7.32;2.92;;;;;;;;;;5083304;28;20043;-65
2022/06/13 00:14:34;;;;;;;6.50;2.97;;;;;;;;;;5089490;28;20048;-65
2022/06/13 00:17:01;;;;;;;9.07;2.80;;;;;;;;;;5085427;28;20032;-65
2022/06/13 00:19:26;;;;;;;6.68;3.20;;;;;;;;;;5084192;28;20032;-65
2022/06/13 00:21:51;;;;;;;6.55;2.80;;;;;;;;;;5084927;28;20048;-65
2022/06/13 00:24:17;;;;;;;6.97;2.90;;;;;;;;;;5085980;28;20039;-65
2022/06/13 00:26:42;;;;;;;9.15;2.90;;;;;;;;;;5086571;28;20417;-65
2022/06/13 00:29:07;;;;;;;6.00;2.85;;;;;;;;;;5086842;28;20036;-65
2022/06/13 00:31:33;;;;;;;7.07;3.03;;;;;;;;;;5087463;28;20504;-65
2022/06/13 00:33:58;;;;;;;6.53;3.00;;;;;;;;;;5087332;28;20028;-65
2022/06/13 00:36:24;;;;;;;6.63;2.65;;;;;;;;;;5085125;28;20028;-65
2022/06/13 00:38:51;;;;;;;7.00;3.00;;;;;;;;;;5088924;28;20028;-65
2022/06/13 00:41:23;;;;;;;7.35;3.03;;;;;;;;;;5086455;28;20119;-65
2022/06/13 00:43:49;;;;;;;10.60;3.13;;;;;;;;;;5080660;28;20110;-65
2022/06/13 00:46:23;;;;;;;10.75;3.95;;;;;;;;;;5084330;28;20028;-65
2022/06/13 00:49:03;;;;;;;8.38;3.00;;;;;;;;;;5082995;28;20032;-65
2022/06/13 00:51:31;;;;;;;8.75;3.10;;;;;;;;;;5084686;28;20040;-65
2022/06/13 00:53:57;;;;;;;8.77;3.38;;;;;;;;;;5084844;28;20032;-65
2022/06/13 00:56:27;;;;;;;5.38;2.80;;;;;;;;;;5083776;28;20127;-65
2022/06/13 00:58:57;;;;;;;8.25;3.17;;;;;;;;;;5088311;28;20089;-65
2022/06/13 01:01:23;;;;;;;9.48;2.90;;;;;;;;;;5089514;28;20032;-65
2022/06/13 01:03:50;;;;;;;8.70;3.05;;;;;;;;;;5084085;28;20047;-65
2022/06/13 01:06:15;;;;;;;7.82;3.15;;;;;;;;;;5087904;28;20043;-65
2022/06/13 01:08:41;;;;;;;6.32;3.00;;;;;;;;;;5085351;28;20044;-65
2022/06/13 01:11:16;;;;;;;9.38;2.85;;;;;;;;;;5084273;28;20047;-65
2022/06/13 01:14:12;;;;;;;7.55;2.95;;;;;;;;;;5083277;28;20082;-65
2022/06/13 01:17:15;;;;;;;9.00;2.88;;;;;;;;;;5083437;28;20032;-65
2022/06/13 01:19:49;;;;;;;10.07;2.70;;;;;;;;;;5082941;28;20134;-64
2022/06/13 01:22:42;;;;;;;6.90;2.70;;;;;;;;;;5080603;28;20072;-65
2022/06/13 01:25:32;;;;;;;8.32;3.17;;;;;;;;;;5083095;28;20040;-65
2022/06/13 01:28:06;;;;;;;7.35;3.03;;;;;;;;;;5085693;28;20040;-65
2022/06/13 01:31:04;;;;;;;12.30;3.13;;;;;;;;;;5080416;28;20043;-65
2022/06/13 01:33:38;;;;;;;6.93;3.25;;;;;;;;;;5067224;28;20131;-65
2022/06/13 01:36:31;;;;;;;8.68;3.40;;;;;;;;;;5082297;28;20036;-65
2022/06/13 01:39:23;;;;;;;9.93;3.53;;;;;;;;;;5085443;28;20043;-65
2022/06/13 01:42:45;;;;;;;6.82;3.30;;;;;;;;;;5081640;28;20070;-65
2022/06/13 01:45:17;;;;;;;7.93;3.63;;;;;;;;;;5023220;28;20052;-65
2022/06/13 01:48:01;;;;;;;6.35;3.13;;;;;;;;;;5008417;28;20037;-65
2022/06/13 01:50:32;;;;;;;12.25;3.28;;;;;;;;;;5066136;28;20037;-65
2022/06/13 01:53:12;;;;;;;8.20;3.50;;;;;;;;;;5085376;28;20050;-64
2022/06/13 01:55:38;;;;;;;7.30;3.35;;;;;;;;;;5078734;28;20021;-65
2022/06/13 01:58:45;;;;;;;12.60;3.65;;;;;;;;;;5081402;28;20068;-65
2022/06/13 02:01:34;;;;;;;8.70;3.60;;;;;;;;;;5076052;28;20051;-65
2022/06/13 02:04:07;;;;;;;9.57;3.58;;;;;;;;;;5084774;28;20036;-65
2022/06/13 02:06:36;;;;;;;7.13;3.17;;;;;;;;;;5080290;28;20073;-65
2022/06/13 02:09:10;;;;;;;11.82;3.75;;;;;;;;;;5084854;28;20595;-65
2022/06/13 02:11:48;;;;;;;10.43;3.50;;;;;;;;;;5083495;28;20075;-65
2022/06/13 02:14:20;;;;;;;9.80;3.10;;;;;;;;;;5084677;28;20066;-65
2022/06/13 02:16:52;;;;;;;9.65;3.58;;;;;;;;;;5084982;28;20028;-65
2022/06/13 02:19:44;;;;;;;9.57;2.90;;;;;;;;;;5087350;28;20024;-65
2022/06/13 02:22:26;;;;;;;10.98;3.95;;;;;;;;;;5082786;28;20100;-65
2022/06/13 02:25:00;;;;;;;7.95;3.55;;;;;;;;;;5084849;28;20043;-65
2022/06/13 02:27:27;;;;;;;;;;;;;;;;;;5080961;28;20402;-65
2022/06/13 02:29:56;;;;;;;13.52;3.40;;;;;;;;;;5084290;28;19916;-65
2022/06/13 02:32:29;;;;;;;7.50;3.33;;;;;;;;;;5084904;28;20425;-65
2022/06/13 02:35:00;;;;;;;;;;;;;;;;;;5082150;28;20027;-65
2022/06/13 02:37:55;;;;;;;8.93;3.58;;;;;;;;;;5086025;28;19920;-65
2022/06/13 02:40:28;;;;;;;10.38;3.58;;;;;;;;;;5068402;28;20097;-65
2022/06/13 02:43:12;;;;;;;8.23;2.97;;;;;;;;;;5084985;28;20073;-65
2022/06/13 02:45:55;;;;;;;7.90;3.55;;;;;;;;;;5082969;28;20035;-65
2022/06/13 02:48:29;;;;;;;10.97;3.93;;;;;;;;;;5085156;28;20032;-65
2022/06/13 02:51:24;;;;;;;11.70;3.90;;;;;;;;;;5080087;28;20282;-65
2022/06/13 02:53:58;;;;;;;10.93;3.40;;;;;;;;;;5083255;28;20043;-65
2022/06/13 02:56:32;;;;;;;7.45;3.38;;;;;;;;;;5082036;28;20047;-65
2022/06/13 02:59:59;;;;;;;10.05;4.18;;;;;;;;;;5082470;28;20568;-65
2022/06/13 03:02:32;;;;;;;13.68;3.70;;;;;;;;;;5060218;28;20620;-64
2022/06/13 03:05:14;;;;;;;12.07;4.28;;;;;;;;;;5082478;28;20029;-67
2022/06/13 03:07:52;;;;;;;8.38;3.60;;;;;;;;;;5086223;28;20020;-66
2022/06/13 03:10:23;;;;;;;10.85;3.38;;;;;;;;;;5082432;28;20115;-67
2022/06/13 03:13:07;;;;;;;9.50;3.75;;;;;;;;;;5085951;28;20027;-67
2022/06/13 03:15:45;;;;;;;11.13;3.65;;;;;;;;;;5076265;28;20526;-67
2022/06/13 03:18:25;;;;;;;11.07;4.00;;;;;;;;;;5085171;28;20684;-67
2022/06/13 03:20:59;;;;;;;11.07;3.47;;;;;;;;;;5083091;28;20028;-67
2022/06/13 03:23:31;;;;;;;;;;;;;;;;;;5085213;28;20032;-67
2022/06/13 03:26:05;;;;;;;8.50;3.45;;;;;;;;;;5083519;28;20518;-67
2022/06/13 03:28:55;;;;;;;13.23;4.00;;;;;;;;;;5083331;28;20558;-67
2022/06/13 03:31:37;;;;;;;6.78;3.67;;;;;;;;;;5085294;28;20061;-67
2022/06/13 03:34:08;;;;;;;13.40;4.07;;;;;;;;;;5082339;28;20032;-67
2022/06/13 03:36:43;;;;;;;11.80;3.78;;;;;;;;;;5081231;28;20443;-67
2022/06/13 03:39:12;;;;;;;9.75;3.97;;;;;;;;;;5083558;28;20455;-66
2022/06/13 03:42:05;;;;;;;10.43;3.40;;;;;;;;;;5083146;28;20048;-67
2022/06/13 03:44:37;;;;;;;8.20;3.97;;;;;;;;;;5081972;28;20576;-67
2022/06/13 03:47:29;;;;;;;10.35;3.72;;;;;;;;;;5084739;28;20028;-67
2022/06/13 03:50:01;;;;;;;11.93;4.22;;;;;;;;;;5081775;28;20032;-67
2022/06/13 03:52:30;;;;;;;15.43;4.88;;;;;;;;;;5086193;28;20022;-66
2022/06/13 03:55:05;;;;;;;13.68;4.18;;;;;;;;;;5079337;28;20231;-67
2022/06/13 03:57:48;;;;;;;8.98;4.05;;;;;;;;;;5081524;28;21073;-67
2022/06/13 04:00:19;;;;;;;16.95;4.45;;;;;;;;;;5083577;28;20035;-67
2022/06/13 04:02:45;;;;;;;10.93;4.15;;;;;;;;;;5079232;28;20055;-67
2022/06/13 04:05:24;;;;;;;9.52;4.15;;;;;;;;;;5081813;28;20547;-67
2022/06/13 04:07:50;;;;;;;12.25;3.90;;;;;;;;;;5087629;28;20037;-67
2022/06/13 04:10:16;;;;;;;10.02;4.63;;;;;;;;;;5087257;28;20412;-67
2022/06/13 04:12:53;;;;;;;9.05;4.47;;;;;;;;;;5087162;28;20047;-67
2022/06/13 04:15:31;;;;;;;11.77;4.03;;;;;;;;;;5088188;28;20046;-67
2022/06/13 04:18:03;;;;;;;10.95;4.05;;;;;;;;;;5083915;28;20040;-67
2022/06/13 04:21:04;;;;;;;8.85;3.75;;;;;;;;;;5078952;28;20040;-67
2022/06/13 04:23:37;;;;;;;9.57;3.63;;;;;;;;;;5084492;28;20044;-67
2022/06/13 04:26:13;;;;;;;9.25;3.92;;;;;;;;;;5086832;28;20580;-68
2022/06/13 04:29:05;;;;;;;12.07;4.10;;;;;;;;;;5075925;28;20489;-67
2022/06/13 04:31:32;;;;;;;11.70;3.67;;;;;;;;;;5088758;28;20024;-67
2022/06/13 04:34:12;;;;;;;17.00;4.28;;;;;;;;;;5088070;28;20040;-67
2022/06/13 04:36:39;;;;;;;10.38;3.92;;;;;;;;;;5085339;28;20043;-67
2022/06/13 04:39:08;;;;;;;11.55;3.85;;;;;;;;;;5084673;28;20111;-67
2022/06/13 04:41:38;;;;;;;8.60;4.18;;;;;;;;;;5088521;28;20079;-66
2022/06/13 04:44:05;;;;;;;12.75;4.07;;;;;;;;;;5085293;28;20039;-67
2022/06/13 04:46:35;;;;;;;9.43;3.65;;;;;;;;;;5086825;28;20032;-67
2022/06/13 04:49:05;;;;;;;9.45;3.85;;;;;;;;;;5086653;28;20035;-66
2022/06/13 04:51:41;;;;;;;9.43;3.83;;;;;;;;;;5078803;28;20039;-67
2022/06/13 04:54:09;;;;;;;9.38;3.90;;;;;;;;;;5078218;28;20032;-67
2022/06/13 04:56:34;;;;;;;13.55;4.43;;;;;;;;;;5085310;28;20086;-67
2022/06/13 04:59:01;;;;;;;8.77;4.43;;;;;;;;;;5085355;28;20513;-68
2022/06/13 05:01:34;;;;;;;13.68;4.75;;;;;;;;;;5082204;28;20034;-68
2022/06/13 05:04:03;;;;;;;10.38;4.32;;;;;;;;;;5083093;28;20039;-68
2022/06/13 05:06:39;;;;;;;12.15;4.28;;;;;;;;;;5081878;28;20036;-68
2022/06/13 05:09:06;;;;;;;11.23;4.43;;;;;;;;;;5083896;28;20031;-68
2022/06/13 05:11:47;;;;;;;14.27;5.13;;;;;;;;;;5079827;28;20101;-68
2022/06/13 05:14:17;;;;;;;12.38;4.13;;;;;;;;;;5081497;28;20028;-68
2022/06/13 05:17:08;;;;;;;16.30;5.13;;;;;;;;;;5083110;28;20054;-68
2022/06/13 05:19:51;;;;;;;12.07;4.88;;;;;;;;;;5079805;28;20016;-67
2022/06/13 05:22:36;;;;;;;12.43;4.68;;;;;;;;;;5083963;28;20070;-68
2022/06/13 05:25:28;;;;;;;10.18;4.05;;;;;;;;;;5086958;28;20039;-68
2022/06/13 05:27:54;;;;;;;11.48;4.38;;;;;;;;;;5078696;28;20032;-68
2022/06/13 05:30:21;;;;;;;15.98;6.15;;;;;;;;;;5082837;28;20028;-68
2022/06/13 05:32:46;;;;;;;16.60;4.75;;;;;;;;;;5083578;28;20078;-68
2022/06/13 05:35:19;;;;;;;16.85;4.57;;;;;;;;;;5076277;28;20036;-68
2022/06/13 05:37:45;;;;;;;13.35;5.03;;;;;;;;;;5081025;28;20521;-68
2022/06/13 05:40:15;;;;;;;14.77;4.40;;;;;;;;;;5078507;28;20028;-69
2022/06/13 05:42:41;;;;;;;14.73;5.10;;;;;;;;;;5078512;28;20090;-68
2022/06/13 05:45:11;;;;;;;13.27;5.22;;;;;;;;;;5086185;28;20048;-68
2022/06/13 05:47:37;;;;;;;11.93;4.25;;;;;;;;;;5083584;28;20032;-68
2022/06/13 05:50:02;;;;;;;16.58;4.15;;;;;;;;;;5070373;28;20055;-68
2022/06/13 05:52:28;;;;;;;15.38;5.60;;;;;;;;;;5083960;28;20050;-68
2022/06/13 05:54:53;;;;;;;14.73;4.57;;;;;;;;;;5088263;28;20032;-68
2022/06/13 05:57:18;;;;;;;11.30;4.63;;;;;;;;;;5087672;28;20056;-68
2022/06/13 05:59:44;;;;;;;13.63;4.40;;;;;;;;;;5086728;28;20058;-69
2022/06/13 06:02:09;;;;;;;12.57;4.03;;;;;;;;;;5087351;28;20035;-68
2022/06/13 06:04:35;;;;;;;11.88;4.05;;;;;;;;;;5088414;28;20050;-68
2022/06/13 06:07:00;;;;;;;11.88;4.55;;;;;;;;;;5084242;28;20154;-68
2022/06/13 06:09:25;;;;;;;15.18;4.55;;;;;;;;;;5079535;28;20166;-68
2022/06/13 06:11:51;;;;;;;11.52;4.15;;;;;;;;;;5083889;28;20690;-68
2022/06/13 06:14:16;;;;;;;12.85;4.15;;;;;;;;;;5087615;28;20043;-68
2022/06/13 06:16:42;;;;;;;10.77;3.95;;;;;;;;;;5080721;28;20028;-69
2022/06/13 06:19:07;;;;;;;18.42;4.15;;;;;;;;;;5083092;28;20477;-68
2022/06/13 06:21:32;;;;;;;13.68;3.53;;;;;;;;;;5080319;28;20078;-68
2022/06/13 06:23:58;;;;;;;13.95;3.85;;;;;;;;;;5078412;28;20086;-68
2022/06/13 06:26:26;;;;;;;11.00;3.97;;;;;;;;;;5084552;28;20047;-69
2022/06/13 06:28:51;;;;;;;10.98;3.58;;;;;;;;;;5086789;28;20031;-68
2022/06/13 06:31:18;;;;;;;15.52;3.67;;;;;;;;;;5084078;28;20028;-68
2022/06/13 06:33:44;;;;;;;9.45;3.15;;;;;;;;;;5081403;28;20532;-68
2022/06/13 06:36:12;;;;;;;10.55;3.45;;;;;;;;;;5083133;28;20028;-68
2022/06/13 06:38:38;;;;;;;8.23;2.92;;;;;;;;;;5085060;28;20029;-68
2022/06/13 06:41:03;;;;;;;9.57;3.50;;;;;;;;;;5083233;28;20769;-68
2022/06/13 06:43:28;;;;;;;8.82;3.50;;;;;;;;;;5083049;28;20077;-68
2022/06/13 06:45:54;;;;;;;7.68;3.33;;;;;;;;;;5083943;28;20527;-68
2022/06/13 06:48:21;;;;;;;11.13;3.40;;;;;;;;;;5079487;28;20043;-68
2022/06/13 06:50:49;;;;;;;12.10;3.67;;;;;;;;;;5081758;28;20420;-68
2022/06/13 06:53:17;;;;;;;10.02;3.40;;;;;;;;;;5081340;28;20413;-68
2022/06/13 07:01:12;;;;;;;9.05;3.25;;;;;;;;;;5077194;28;20661;-68
2022/06/13 07:03:38;;;;;;;11.30;3.30;;;;;;;;;;5077018;28;20387;-69
2022/06/13 07:06:04;;;;;;;8.27;2.85;;;;;;;;;;5082741;28;20495;-69
2022/06/13 07:08:30;;;;;;;10.10;2.65;;;;;;;;;;5081205;28;20032;-68
2022/06/13 07:11:53;;;;;;;46.60;5.00;;;;;;;;;;5083277;28;20020;-68
2022/06/13 07:13:44;;;;;;;8.75;3.22;;;;;;;;;;5077905;28;20051;-68
2022/06/13 07:16:09;;;;;;;11.10;3.00;;;;;;;;;;5072747;28;20048;-68
2022/06/13 07:18:35;;;;;;;9.45;3.30;;;;;;;;;;5068190;28;20064;-68
2022/06/13 07:21:00;;;;;;;12.07;3.42;;;;;;;;;;5076210;28;20122;-69
2022/06/13 07:23:25;;;;;;;8.82;2.92;;;;;;;;;;5074187;28;20479;-69
2022/06/13 07:25:51;;;;;;;9.25;3.03;;;;;;;;;;5075460;28;20411;-68
2022/06/13 07:28:16;;;;;;;9.85;2.72;;;;;;;;;;5083205;28;20077;-69
2022/06/13 07:30:41;;;;;;;10.60;2.75;;;;;;;;;;5084023;28;20145;-69
2022/06/13 07:33:07;;;;;;;8.85;3.03;;;;;;;;;;5077512;28;20028;-69
2022/06/13 07:35:32;;;;;;;9.20;3.00;;;;;;;;;;5064812;28;20032;-68
2022/06/13 07:38:16;;;;;;;6.18;2.45;;;;;;;;;;5077083;28;20055;-68
2022/06/13 07:40:42;;;;;;;8.38;2.55;;;;;;;;;;5074960;28;20020;-68
2022/06/13 07:43:21;;;;;;;5.95;2.53;;;;;;;;;;5078694;28;20153;-69
2022/06/13 07:45:46;;;;;;;12.35;2.78;;;;;;;;;;5078527;28;20052;-68
2022/06/13 07:48:12;;;;;;;6.22;2.60;;;;;;;;;;5078401;28;20032;-68
2022/06/13 07:50:37;;;;;;;9.98;2.72;;;;;;;;;;5078007;28;20221;-68
2022/06/13 07:53:02;;;;;;;9.50;3.05;;;;;;;;;;5079816;28;20036;-68
2022/06/13 07:55:30;;;;;;;7.88;2.50;;;;;;;;;;5081667;28;20756;-68
2022/06/13 07:57:55;;;;;;;12.27;2.70;;;;;;;;;;5083046;28;20032;-69
2022/06/13 08:00:25;;;;;;;8.15;2.80;;;;;;;;;;5081643;28;20036;-69
2022/06/13 08:02:51;;;;;;;7.72;2.58;;;;;;;;;;5083241;28;20032;-69
2022/06/13 08:05:17;;;;;;;8.80;2.65;;;;;;;;;;5080547;28;20044;-68
2022/06/13 08:07:42;;;;;;;7.32;2.55;;;;;;;;;;5081985;28;20024;-68
2022/06/13 08:10:08;;;;;;;9.00;2.72;;;;;;;;;;5080730;28;20028;-67
2022/06/13 08:12:34;;;;;;;21.50;3.33;;;;;;;;;;5084059;28;20043;-68
2022/06/13 08:14:59;;;;;;;7.85;2.40;;;;;;;;;;5083374;28;20036;-68
2022/06/13 08:17:25;;;;;;;6.50;3.15;;;;;;;;;;5083756;28;20075;-68
2022/06/13 08:19:50;;;;;;;8.63;2.70;;;;;;;;;;5082319;28;20107;-68
2022/06/13 08:22:16;;;;;;;7.50;2.78;;;;;;;;;;5083416;28;20048;-68
2022/06/13 08:24:41;;;;;;;7.65;2.90;;;;;;;;;;5077209;28;20037;-70
2022/06/13 08:27:07;;;;;;;6.45;2.25;;;;;;;;;;5089819;28;20035;-70
2022/06/13 08:29:33;;;;;;;7.68;3.10;;;;;;;;;;5089785;28;20044;-70
2022/06/13 08:32:00;;;;;;;6.80;2.50;;;;;;;;;;5089742;28;20067;-69
2022/06/13 08:34:25;;;;;;;6.47;2.80;;;;;;;;;;5080646;28;20148;-70
2022/06/13 08:36:52;;;;;;;7.30;2.45;;;;;;;;;;5084726;28;20130;-69
2022/06/13 08:39:18;;;;;;;8.85;3.08;;;;;;;;;;5082317;28;20044;-69
2022/06/13 08:41:56;;;;;;;7.93;2.72;;;;;;;;;;5084473;28;20040;-70
2022/06/13 08:44:40;;;;;;;5.80;2.72;;;;;;;;;;5084380;28;20032;-70
2022/06/13 08:47:29;;;;;;;9.90;4.63;;;;;;;;;;5081733;28;20028;-69
2022/06/13 08:50:15;;;;;;;6.05;2.47;;;;;;;;;;5075507;28;20499;-68
2022/06/13 08:52:46;;;;;;;5.30;2.55;;;;;;;;;;5077441;28;20035;-67
2022/06/13 08:55:14;;;;;;;7.82;2.58;;;;;;;;;;5081500;28;20677;-68
2022/06/13 08:57:45;;;;;;;5.95;2.33;;;;;;;;;;5081882;28;20123;-68
2022/06/13 09:00:17;;;;;;;14.05;5.75;;;;;;;;;;5075075;28;20573;-67
2022/06/13 09:03:01;;;;;;;15.82;3.90;;;;;;;;;;5081279;28;20059;-68
2022/06/13 09:05:36;;;;;;;5.45;1.95;;;;;;;;;;5079449;28;20063;-68
2022/06/13 09:08:24;;;;;;;6.50;2.20;;;;;;;;;;5086476;28;20086;-67
2022/06/13 09:11:14;;;;;;;4.20;2.25;;;;;;;;;;5080808;28;20438;-68
2022/06/13 09:13:47;;;;;;;15.13;5.75;;;;;;;;;;5085810;28;20038;-68
2022/06/13 09:16:20;;;;;;;6.47;2.83;;;;;;;;;;5083348;28;20027;-68
2022/06/13 09:18:55;;;;;;;6.47;2.20;;;;;;;;;;5083995;28;20044;-68
2022/06/13 09:21:30;;;;;;;4.35;1.80;;;;;;;;;;5083439;28;20055;-68
2022/06/13 09:24:01;;;;;;;7.00;2.08;;;;;;;;;;5082147;28;20051;-68
2022/06/13 09:26:47;;;;;;;5.10;2.03;;;;;;;;;;5083682;28;20028;-68
2022/06/13 09:29:26;;;;;;;6.60;2.65;;;;;;;;;;5080852;28;20043;-68
2022/06/13 09:32:02;;;;;;;5.57;2.33;;;;;;;;;;5080640;28;20043;-68
2022/06/13 09:34:32;;;;;;;4.13;2.08;;;;;;;;;;5083026;28;20070;-67
2022/06/13 09:37:16;;;;;;;7.18;2.50;;;;;;;;;;5081128;28;20048;-68
2022/06/13 09:39:42;;;;;;;3.35;1.80;;;;;;;;;;5083175;28;20036;-68
2022/06/13 09:42:14;;;;;;;6.40;2.28;;;;;;;;;;5083284;28;20035;-68
2022/06/13 09:44:45;;;;;;;3.85;1.58;;;;;;;;;;5081233;28;20162;-68
2022/06/13 09:47:18;;;;;;;5.85;2.00;;;;;;;;;;5082748;28;20059;-68
2022/06/13 09:50:09;;;;;;;3.75;1.92;;;;;;;;;;5081331;28;20032;-68
2022/06/13 09:52:52;;;;;;;7.88;1.88;;;;;;;;;;5081557;28;20492;-68
2022/06/13 09:55:27;;;;;;;;;;;;;;;;;;5083776;28;20071;-68
2022/06/13 09:58:02;;;;;;;4.70;2.13;;;;;;;;;;5081343;28;19926;-68
2022/06/13 10:00:51;;;;;;;3.58;1.80;;;;;;;;;;5081854;28;20028;-68
2022/06/13 10:03:58;;;;;;;7.30;2.10;;;;;;;;;;5080622;28;20096;-68
2022/06/13 10:06:52;;;;;;;4.03;2.05;;;;;;;;;;5019386;28;20041;-68
2022/06/13 10:09:53;;;;;;;5.47;1.80;;;;;;;;;;5012258;28;20033;-68
2022/06/13 10:12:44;;;;;;;5.20;1.80;;;;;;;;;;5064975;28;20519;-69
2022/06/13 10:15:24;;;;;;;2.47;1.70;;;;;;;;;;5082231;28;20054;-69
2022/06/13 10:18:20;;;;;;;4.57;2.28;;;;;;;;;;5074999;28;20036;-68
2022/06/13 10:20:57;;;;;;;8.43;2.55;;;;;;;;;;5077138;28;20495;-68
2022/06/13 10:23:51;;;;;;;6.13;2.20;;;;;;;;;;5083455;28;20127;-69
2022/06/13 10:26:36;;;;;;;3.55;1.80;;;;;;;;;;5081984;28;20111;-68
2022/06/13 10:29:25;;;;;;;4.75;1.90;;;;;;;;;;5077995;28;20035;-68
2022/06/13 10:32:11;;;;;;;5.43;1.80;;;;;;;;;;5079842;28;20028;-68
2022/06/13 10:35:21;;;;;;;3.53;1.48;;;;;;;;;;5078935;28;20047;-68
2022/06/13 10:38:21;;;;;;;4.13;1.92;;;;;;;;;;5027502;28;20542;-68
2022/06/13 10:40:47;;;;;;;3.38;1.95;;;;;;;;;;5002008;28;20022;-68
2022/06/13 10:43:13;;;;;;;3.78;1.45;;;;;;;;;;5062676;28;20028;-69
2022/06/13 10:45:40;;;;;;;5.65;1.55;;;;;;;;;;5082904;28;20028;-68
2022/06/13 10:48:17;;;;;;;3.30;1.33;;;;;;;;;;5078388;28;20113;-68
2022/06/13 10:50:54;;;;;;;19.15;2.42;;;;;;;;;;5082498;28;20053;-68
2022/06/13 10:54:13;;;;;;;1.90;1.10;;;;;;;;;;5080720;28;20031;-68
2022/06/13 10:56:46;;;;;;;3.67;1.30;;;;;;;;;;5015841;28;20034;-68
2022/06/13 10:59:26;;;;;;;4.65;1.50;;;;;;;;;;5075373;28;20036;-68
2022/06/13 11:02:03;;;;;;;3.22;1.38;;;;;;;;;;5079857;28;20097;-68
2022/06/13 11:04:35;;;;;;;3.20;1.40;;;;;;;;;;5078003;28;20541;-68
2022/06/13 11:07:19;;;;;;;6.57;1.60;;;;;;;;;;5080871;28;20073;-68
2022/06/13 11:09:49;;;;;;;;;;;;;;;;;;5082412;28;20165;-68
2022/06/13 11:12:23;;;;;;;2.03;1.20;;;;;;;;;;5079823;28;19919;-69
2022/06/13 11:23:43;;;;;;;2.75;1.50;;;;;;;;;;5077947;28;20478;-68
2022/06/13 11:27:39;;;;;;;3.72;1.60;;;;;;;;;;5079409;28;20193;-66
2022/06/13 11:28:54;;;;;;;4.35;1.60;;;;;;;;;;5074035;28;20108;-68
2022/06/13 11:31:23;;;;;;;4.47;1.58;;;;;;;;;;5078885;28;20041;-69
2022/06/13 11:33:49;;;;;;;5.72;1.70;;;;;;;;;;5077199;28;20086;-68
2022/06/13 11:36:14;;;;;;;4.10;1.75;;;;;;;;;;5078702;28;20044;-68
2022/06/13 11:38:55;;;;;;;12.25;3.08;;;;;;;;;;5081003;28;20532;-68
2022/06/13 11:41:22;;;;;;;18.73;2.72;;;;;;;;;;5081388;28;20040;-68
2022/06/13 11:44:00;;;;;;;27.40;3.50;;;;;;;;;;5079171;28;20028;-68
2022/06/13 11:46:28;;;;;;;9.63;2.28;;;;;;;;;;5080021;28;20035;-68
2022/06/13 11:49:20;;;;;;;7.35;1.92;;;;;;;;;;5083289;28;20147;-68
2022/06/13 11:51:59;;;;;;;3.63;1.95;;;;;;;;;;5085306;28;20040;-68
2022/06/13 11:54:32;;;;;;;4.32;2.28;;;;;;;;;;5077917;28;20116;-69
2022/06/13 11:57:12;;;;;;;3.05;1.90;;;;;;;;;;5081311;28;20040;-68
2022/06/13 11:59:56;;;;;;;2.65;1.65;;;;;;;;;;5073087;28;20032;-68
2022/06/13 12:02:34;;;;;;;7.13;2.08;;;;;;;;;;5076979;28;20044;-68
2022/06/13 12:04:59;;;;;;;2.70;1.30;;;;;;;;;;5069669;28;20421;-68
2022/06/13 12:07:31;;;;;;;3.97;1.60;;;;;;;;;;5078919;28;20023;-68
2022/06/13 12:09:59;;;;;;;3.05;1.33;;;;;;;;;;5079072;28;20043;-68
2022/06/13 12:12:43;;;;;;;3.53;1.40;;;;;;;;;;5074980;28;20139;-68
2022/06/13 12:15:14;;;;;;;2.55;1.33;;;;;;;;;;5074618;28;20040;-68
2022/06/13 12:17:48;;;;;;;3.28;1.50;;;;;;;;;;5074952;28;20101;-67
2022/06/13 12:20:31;;;;;;;5.70;1.73;;;;;;;;;;5077728;28;20059;-68
2022/06/13 12:22:58;;;;;;;3.83;1.20;;;;;;;;;;5078181;28;20053;-68
2022/06/13 12:25:30;;;;;;;3.50;1.50;;;;;;;;;;5080004;28;20143;-68
2022/06/13 12:28:03;;;;;;;2.55;1.40;;;;;;;;;;5079769;28;20032;-68
2022/06/13 12:30:37;;;;;;;;;;;;;;;;;;5085028;28;20044;-68
2022/06/13 12:33:34;;;;;;;1.90;1.17;;;;;;;;;;5078361;28;19916;-68
2022/06/13 12:36:34;;;;;;;4.47;1.40;;;;;;;;;;5077339;28;20151;-68
2022/06/13 12:39:22;;;;;;;3.50;1.30;;;;;;;;;;5079051;28;20040;-68
2022/06/13 12:41:47;;;;;;;3.92;1.42;;;;;;;;;;5077667;28;20089;-68
2022/06/13 12:44:57;;;;;;;2.42;1.35;;;;;;;;;;5075737;28;20039;-68
2022/06/13 12:47:44;;;;;;;3.20;1.40;;;;;;;;;;5045144;28;20068;-68
2022/06/13 12:50:25;;;;;;;2.22;1.33;;;;;;;;;;5077080;28;20040;-68
2022/06/13 12:53:09;;;;;;;6.70;1.65;;;;;;;;;;5080496;28;20060;-68
2022/06/13 12:55:46;;;;;;;3.47;1.40;;;;;;;;;;5082098;28;20024;-68
2022/06/13 12:58:28;;;;;;;10.68;7.32;;;;;;;;;;5079138;28;20051;-68
2022/06/13 13:01:02;;;;;;;3.25;1.25;;;;;;;;;;5083393;28;20040;-68
2022/06/13 13:04:07;;;;;;;2.63;1.10;;;;;;;;;;5083211;28;20032;-70
2022/06/13 13:06:38;;;;;;;2.28;1.15;;;;;;;;;;5082698;28;20043;-73
2022/06/13 13:09:33;;;;;;;7.18;1.50;;;;;;;;;;5076157;28;20040;-70
2022/06/13 13:12:29;;;;;;;3.55;1.05;;;;;;;;;;5052392;28;20032;-69
2022/06/13 13:15:22;;;;;;;2.47;1.10;;;;;;;;;;5075913;28;20046;-69
2022/06/13 13:17:54;;;;;;;2.03;1.10;;;;;;;;;;5081882;28;20045;-70
2022/06/13 13:20:27;;;;;;;2.92;1.23;;;;;;;;;;5073779;28;20611;-70
2022/06/13 13:23:14;;;;;;;2.03;1.17;;;;;;;;;;5078512;28;20056;-69
2022/06/13 13:25:56;;;;;;;2.38;1.10;;;;;;;;;;5072091;28;20357;-69
2022/06/13 13:28:32;;;;;;;2.38;1.10;;;;;;;;;;5071936;28;20039;-69
2022/06/13 13:31:06;;;;;;;1.90;1.00;;;;;;;;;;5073407;28;20047;-69
2022/06/13 13:33:51;;;;;;;3.30;1.10;;;;;;;;;;5074189;28;20047;-69
2022/06/13 13:36:16;;;;;;;3.45;1.00;;;;;;;;;;5073273;28;20100;-69
2022/06/13 13:38:46;;;;;;;1.90;1.13;;;;;;;;;;5075026;28;20086;-69
2022/06/13 13:41:30;;;;;;;2.72;0.98;;;;;;;;;;5077587;28;20082;-70
2022/06/13 13:43:59;;;;;;;;;;;;;;;;;;5075818;28;20028;-70
2022/06/13 13:46:33;;;;;;;1.15;1.00;;;;;;;;;;5076238;28;20016;-69
2022/06/13 13:49:04;;;;;;;2.70;1.05;;;;;;;;;;5076785;28;20478;-70
2022/06/13 13:51:35;;;;;;;1.80;1.35;;;;;;;;;;5076212;28;20047;-70
2022/06/13 13:54:15;;;;;;;4.65;1.25;;;;;;;;;;5077763;28;20409;-70
2022/06/13 13:56:53;;;;;;;2.55;1.00;;;;;;;;;;5081773;28;20032;-70
2022/06/13 13:59:24;;;;;;;2.97;1.08;;;;;;;;;;5080481;28;20122;-70
2022/06/13 14:02:05;;;;;;;5.07;1.20;;;;;;;;;;5078167;28;20039;-69
2022/06/13 14:04:37;;;;;;;2.33;1.20;;;;;;;;;;5082812;28;20059;-70
2022/06/13 14:07:28;;;;;;;8.45;1.45;;;;;;;;;;5081127;28;20028;-70
2022/06/13 14:09:55;;;;;;;2.28;1.00;;;;;;;;;;5078134;28;20733;-69
2022/06/13 14:12:21;;;;;;;1.63;1.13;;;;;;;;;;5080838;28;20047;-70
2022/06/13 14:14:50;;;;;;;7.53;1.02;;;;;;;;;;5079260;28;20109;-70
2022/06/13 14:17:26;;;;;;;3.28;1.27;;;;;;;;;;5077270;28;20062;-70
2022/06/13 14:20:00;;;;;;;2.10;1.10;;;;;;;;;;5077144;28;20031;-69
2022/06/13 14:22:27;;;;;;;5.13;1.17;;;;;;;;;;5079802;28;20047;-69
2022/06/13 14:25:01;;;;;;;2.65;0.90;;;;;;;;;;5073594;28;20036;-70
2022/06/13 14:27:26;;;;;;;2.22;1.05;;;;;;;;;;5073614;28;20483;-70
2022/06/13 14:31:03;;;;;;;3.28;1.20;;;;;;;;;;5077905;28;20616;-70
2022/06/13 14:32:38;;;;;;;1.65;1.15;;;;;;;;;;5082642;28;20074;-70
2022/06/13 14:35:16;;;;;;;2.70;1.27;;;;;;;;;;5083524;28;20504;-70
2022/06/13 14:37:47;;;;;;;3.05;1.08;;;;;;;;;;5085068;28;20148;-70
2022/06/13 14:40:23;;;;;;;5.20;1.38;;;;;;;;;;5087412;28;20565;-70
2022/06/13 14:42:54;;;;;;;2.03;1.08;;;;;;;;;;5079018;28;20033;-70
2022/06/13 14:45:44;;;;;;;4.10;1.30;;;;;;;;;;5083442;28;20551;-70
2022/06/13 14:48:15;;;;;;;3.47;1.08;;;;;;;;;;5083248;28;20127;-70
2022/06/13 14:51:09;;;;;;;2.42;1.20;;;;;;;;;;5081389;28;20048;-69
2022/06/13 14:53:35;;;;;;;2.75;1.10;;;;;;;;;;5080455;28;20069;-69
2022/06/13 14:56:06;;;;;;;1.45;1.10;;;;;;;;;;5080012;28;20044;-69
2022/06/13 14:58:50;;;;;;;3.85;1.10;;;;;;;;;;5078992;28;20028;-70
2022/06/13 15:01:20;;;;;;;2.25;1.30;;;;;;;;;;5076810;28;20241;-70
2022/06/13 15:04:04;;;;;;;5.82;1.15;;;;;;;;;;5078137;28;20036;-70
2022/06/13 15:06:32;;;;;;;2.20;1.30;;;;;;;;;;5081847;28;20031;-70
2022/06/13 15:09:25;;;;;;;3.75;1.40;;;;;;;;;;5085273;28;20039;-70
2022/06/13 15:11:53;;;;;;;1.90;1.10;;;;;;;;;;5082363;28;20103;-69
2022/06/13 15:14:25;;;;;;;2.42;1.30;;;;;;;;;;5079219;28;20040;-69
2022/06/13 15:16:53;;;;;;;5.47;1.30;;;;;;;;;;5079946;28;20020;-70
2022/06/13 15:19:23;;;;;;;2.92;1.17;;;;;;;;;;5072765;28;20404;-69
2022/06/13 15:21:57;;;;;;;7.57;1.35;;;;;;;;;;5077103;28;20048;-69
2022/06/13 15:24:22;;;;;;;3.25;1.40;;;;;;;;;;5079307;28;20036;-69
2022/06/13 15:26:59;;;;;;;4.00;1.20;;;;;;;;;;5080633;28;20031;-69
2022/06/13 15:29:25;;;;;;;2.42;1.08;;;;;;;;;;5076896;28;20036;-70
2022/06/13 15:31:53;;;;;;;1.30;1.10;;;;;;;;;;5079499;28;20492;-69
2022/06/13 15:34:25;;;;;;;4.90;1.60;;;;;;;;;;5081214;28;20030;-69
2022/06/13 15:36:55;;;;;;;2.35;1.10;;;;;;;;;;5078756;28;20030;-70
2022/06/13 15:39:22;;;;;;;2.45;1.10;;;;;;;;;;5079502;28;20128;-69